createdAt,value
2017-02-17T00:00:15.929Z,90.05
2017-02-17T00:00:56.405Z,90.05
2017-02-17T00:01:36.884Z,90.24
2017-02-17T00:02:17.378Z,90.15
2017-02-17T00:02:57.828Z,90.05
2017-02-17T00:03:38.333Z,90.15
2017-02-17T00:04:18.797Z,90.05
2017-02-17T00:04:59.264Z,90.05
2017-02-17T00:05:40.711Z,90.15
2017-02-17T00:06:21.185Z,90.15
2017-02-17T00:07:01.705Z,90.05
2017-02-17T00:07:42.181Z,90.24
2017-02-17T00:08:23.355Z,89.77
2017-02-17T00:09:03.779Z,90.43
2017-02-17T00:09:44.269Z,90.53
2017-02-17T00:10:24.755Z,90.34
2017-02-17T00:11:05.233Z,90.43
2017-02-17T00:11:45.716Z,90.24
2017-02-17T00:12:27.208Z,90.43
2017-02-17T00:13:07.678Z,90.15
2017-02-17T00:13:50.440Z,90.34
2017-02-17T00:14:31.703Z,90.43
2017-02-17T00:15:12.834Z,90.43
2017-02-17T00:15:55.816Z,90.15
2017-02-17T00:16:38.118Z,90.15
2017-02-17T00:17:18.585Z,90.34
2017-02-17T00:18:00.054Z,90.34
2017-02-17T00:18:41.104Z,90.81
2017-02-17T00:19:23.507Z,90.53
2017-02-17T00:20:04.820Z,90.72
2017-02-17T00:20:45.301Z,90.72
2017-02-17T00:21:25.772Z,90.72
2017-02-17T00:22:06.271Z,90.72
2017-02-17T00:22:46.712Z,90.62
2017-02-17T00:23:27.181Z,90.62
2017-02-17T00:24:08.592Z,90.53
2017-02-17T00:24:49.061Z,90.34
2017-02-17T00:25:29.540Z,90.34
2017-02-17T00:26:10.003Z,90.81
2017-02-17T00:26:50.454Z,90.72
2017-02-17T00:27:31.442Z,90.24
2017-02-17T00:28:11.884Z,90.43
2017-02-17T00:28:52.384Z,90.72
2017-02-17T00:29:32.891Z,90.81
2017-02-17T00:30:13.386Z,90.34
2017-02-17T00:30:54.502Z,90.24
2017-02-17T00:31:34.975Z,90.43
2017-02-17T00:32:15.472Z,90.53
2017-02-17T00:32:55.977Z,90.43
2017-02-17T00:33:36.476Z,90.53
2017-02-17T00:34:16.974Z,90.62
2017-02-17T00:34:57.424Z,90.62
2017-02-17T00:35:39.682Z,90.81
2017-02-17T00:36:20.169Z,90.81
2017-02-17T00:37:01.535Z,90.81
2017-02-17T00:37:42.033Z,91.19
2017-02-17T00:38:22.496Z,90.34
2017-02-17T00:39:02.953Z,90.72
2017-02-17T00:39:44.099Z,90.72
2017-02-17T00:40:24.607Z,90.72
2017-02-17T00:41:05.106Z,90.24
2017-02-17T00:41:45.569Z,91.19
2017-02-17T00:42:26.066Z,90.24
2017-02-17T00:43:06.567Z,91.19
2017-02-17T00:43:48.005Z,90.91
2017-02-17T00:44:30.820Z,91.19
2017-02-17T00:45:11.851Z,91
2017-02-17T00:45:53.841Z,91
2017-02-17T00:46:35.035Z,91
2017-02-17T00:47:16.939Z,91.09
2017-02-17T00:47:57.438Z,91
2017-02-17T00:48:39.507Z,90.91
2017-02-17T00:49:19.990Z,91
2017-02-17T00:50:00.469Z,91.09
2017-02-17T00:50:40.940Z,91.09
2017-02-17T00:51:21.397Z,91.28
2017-02-17T00:52:01.909Z,91.28
2017-02-17T00:52:43.839Z,91.28
2017-02-17T00:53:25.208Z,91.09
2017-02-17T00:54:06.188Z,91.09
2017-02-17T00:54:46.647Z,91
2017-02-17T00:55:28.007Z,91
2017-02-17T00:56:09.434Z,91.28
2017-02-17T00:56:49.906Z,91.19
2017-02-17T00:57:31.038Z,91.19
2017-02-17T00:58:11.504Z,91.28
2017-02-17T00:58:51.996Z,91.28
2017-02-17T00:59:34.016Z,91.09
2017-02-17T01:00:14.486Z,91.28
2017-02-17T01:00:57.440Z,90.62
2017-02-17T01:01:37.917Z,91.09
2017-02-17T01:02:18.404Z,91.19
2017-02-17T01:02:58.877Z,91.19
2017-02-17T01:03:40.013Z,91.09
2017-02-17T01:04:21.186Z,91.19
2017-02-17T01:05:03.339Z,91.19
2017-02-17T01:05:43.851Z,91.19
2017-02-17T01:06:24.329Z,91.19
2017-02-17T01:07:07.517Z,91.19
2017-02-17T01:07:47.985Z,91.28
2017-02-17T01:08:28.479Z,91.09
2017-02-17T01:09:09.607Z,91.09
2017-02-17T01:09:50.138Z,91
2017-02-17T01:10:32.081Z,91
2017-02-17T01:11:13.419Z,91.09
2017-02-17T01:11:53.889Z,91.28
2017-02-17T01:12:35.137Z,91.09
2017-02-17T01:13:16.209Z,91
2017-02-17T01:13:57.194Z,91.19
2017-02-17T01:14:38.419Z,90.91
2017-02-17T01:15:18.912Z,91
2017-02-17T01:15:59.390Z,91
2017-02-17T01:16:40.602Z,91.28
2017-02-17T01:17:23.602Z,91.38
2017-02-17T01:18:05.506Z,91.09
2017-02-17T01:18:47.586Z,91
2017-02-17T01:19:29.330Z,91.38
2017-02-17T01:20:10.709Z,91.28
2017-02-17T01:20:51.995Z,91.28
2017-02-17T01:21:34.836Z,91.28
2017-02-17T01:22:16.989Z,91.38
2017-02-17T01:22:59.911Z,91.28
2017-02-17T01:23:42.419Z,91.28
2017-02-17T01:24:23.504Z,91
2017-02-17T01:25:05.338Z,91.38
2017-02-17T01:25:47.531Z,91.19
2017-02-17T01:26:27.995Z,91
2017-02-17T01:27:08.463Z,91.09
2017-02-17T01:27:49.587Z,91
2017-02-17T01:28:31.849Z,91.38
2017-02-17T01:29:12.290Z,91.09
2017-02-17T01:29:55.477Z,91.19
2017-02-17T01:30:37.587Z,91.28
2017-02-17T01:31:18.084Z,91.09
2017-02-17T01:31:59.090Z,91.38
2017-02-17T01:32:40.359Z,91.47
2017-02-17T01:33:23.329Z,91.28
2017-02-17T01:34:04.607Z,91.28
2017-02-17T01:34:47.838Z,91.38
2017-02-17T01:35:30.931Z,91.85
2017-02-17T01:36:12.963Z,91.95
2017-02-17T01:36:55.144Z,91.47
2017-02-17T01:37:35.651Z,91.66
2017-02-17T01:38:16.690Z,91.85
2017-02-17T01:38:58.017Z,91.76
2017-02-17T01:39:38.503Z,91.76
2017-02-17T01:40:19.845Z,91.76
2017-02-17T01:41:00.324Z,91.76
2017-02-17T01:41:40.783Z,91.76
2017-02-17T01:42:23.111Z,91.57
2017-02-17T01:43:03.637Z,92.04
2017-02-17T01:43:45.929Z,91.76
2017-02-17T01:44:26.418Z,91.76
2017-02-17T01:45:06.904Z,91.47
2017-02-17T01:45:47.364Z,91.76
2017-02-17T01:46:29.333Z,91.57
2017-02-17T01:47:09.792Z,91.57
2017-02-17T01:47:50.937Z,91.95
2017-02-17T01:48:32.186Z,91.76
2017-02-17T01:49:13.617Z,91.95
2017-02-17T01:49:54.633Z,91.76
2017-02-17T01:50:35.108Z,91.76
2017-02-17T01:51:16.115Z,91.76
2017-02-17T01:51:56.612Z,91.76
2017-02-17T01:52:37.121Z,91.76
2017-02-17T01:53:17.575Z,91.85
2017-02-17T01:53:58.660Z,91.38
2017-02-17T01:54:39.129Z,91.38
2017-02-17T01:55:21.088Z,92.04
2017-02-17T01:56:03.335Z,91.95
2017-02-17T01:56:43.810Z,92.04
2017-02-17T01:57:24.320Z,91.95
2017-02-17T01:58:05.683Z,91.76
2017-02-17T01:58:46.146Z,91.76
2017-02-17T01:59:26.704Z,91.85
2017-02-17T02:00:07.198Z,91.95
2017-02-17T02:00:47.608Z,91.28
2017-02-17T02:01:28.109Z,91.57
2017-02-17T02:02:08.571Z,91.19
2017-02-17T02:02:49.018Z,90.91
2017-02-17T02:03:29.500Z,90.81
2017-02-17T02:04:09.953Z,90.81
2017-02-17T02:04:50.423Z,90.91
2017-02-17T02:05:30.914Z,91
2017-02-17T02:06:11.349Z,90.91
2017-02-17T02:06:51.823Z,90.81
2017-02-17T02:07:32.331Z,90.91
2017-02-17T02:08:12.846Z,90.81
2017-02-17T02:08:53.292Z,90.91
2017-02-17T02:09:33.735Z,91.28
2017-02-17T02:10:14.266Z,91.47
2017-02-17T02:10:54.705Z,91.57
2017-02-17T02:11:35.159Z,91.47
2017-02-17T02:12:15.712Z,91.57
2017-02-17T02:12:56.147Z,91.09
2017-02-17T02:13:36.660Z,91.38
2017-02-17T02:14:17.116Z,91.38
2017-02-17T02:14:57.621Z,91.47
2017-02-17T02:15:38.097Z,91
2017-02-17T02:16:18.592Z,91.19
2017-02-17T02:16:59.059Z,91.19
2017-02-17T02:17:39.569Z,91.28
2017-02-17T02:18:20.027Z,91.38
2017-02-17T02:19:00.511Z,91.28
2017-02-17T02:19:42.514Z,91.38
2017-02-17T02:20:23.015Z,91.28
2017-02-17T02:21:03.470Z,91.38
2017-02-17T02:21:43.960Z,91.38
2017-02-17T02:22:24.472Z,91.38
2017-02-17T02:23:04.944Z,91.57
2017-02-17T02:23:45.400Z,91.38
2017-02-17T02:24:25.872Z,91.47
2017-02-17T02:25:06.381Z,91.66
2017-02-17T02:25:46.875Z,91.57
2017-02-17T02:26:27.355Z,91.57
2017-02-17T02:27:07.808Z,91.28
2017-02-17T02:27:48.309Z,91.57
2017-02-17T02:28:28.786Z,91.19
2017-02-17T02:29:09.245Z,91.38
2017-02-17T02:29:49.759Z,91.47
2017-02-17T02:30:30.247Z,91.57
2017-02-17T02:31:10.689Z,91.47
2017-02-17T02:31:51.238Z,91.85
2017-02-17T02:32:31.687Z,91.85
2017-02-17T02:33:12.229Z,91.76
2017-02-17T02:33:52.688Z,91.95
2017-02-17T02:34:33.194Z,91.76
2017-02-17T02:35:13.630Z,91.66
2017-02-17T02:35:54.134Z,91.76
2017-02-17T02:36:34.594Z,91.76
2017-02-17T02:37:15.100Z,91.66
2017-02-17T02:37:55.542Z,91.85
2017-02-17T02:38:36.013Z,91.76
2017-02-17T02:39:16.520Z,92.14
2017-02-17T02:39:57.009Z,91.95
2017-02-17T02:40:37.453Z,92.14
2017-02-17T02:41:17.906Z,92.04
2017-02-17T02:41:58.374Z,91.76
2017-02-17T02:42:38.841Z,92.23
2017-02-17T02:43:19.318Z,92.04
2017-02-17T02:43:59.816Z,91.76
2017-02-17T02:44:40.338Z,91.76
2017-02-17T02:45:20.796Z,91.85
2017-02-17T02:46:01.244Z,91.85
2017-02-17T02:46:41.733Z,92.04
2017-02-17T02:47:22.196Z,91.95
2017-02-17T02:48:02.662Z,92.14
2017-02-17T02:48:43.166Z,92.14
2017-02-17T02:49:23.661Z,92.23
2017-02-17T02:50:04.146Z,92.14
2017-02-17T02:50:45.323Z,92.33
2017-02-17T02:51:25.790Z,91.85
2017-02-17T02:52:07.181Z,91.66
2017-02-17T02:52:47.647Z,91.76
2017-02-17T02:53:28.110Z,92.09
2017-02-17T02:54:08.578Z,91.85
2017-02-17T02:54:49.094Z,91.76
2017-02-17T02:55:30.441Z,91.76
2017-02-17T02:56:10.901Z,92.42
2017-02-17T02:56:52.134Z,91.95
2017-02-17T02:57:32.610Z,91.95
2017-02-17T02:58:13.074Z,92.04
2017-02-17T02:58:53.598Z,92.42
2017-02-17T02:59:34.010Z,92.42
2017-02-17T03:00:15.437Z,92.09
2017-02-17T03:00:55.876Z,92.33
2017-02-17T03:01:36.371Z,92.33
2017-02-17T03:02:16.851Z,92.33
2017-02-17T03:02:57.935Z,92.14
2017-02-17T03:03:39.193Z,92.14
2017-02-17T03:04:19.652Z,92.42
2017-02-17T03:05:00.114Z,92.23
2017-02-17T03:05:41.429Z,92.09
2017-02-17T03:06:21.920Z,92.42
2017-02-17T03:07:02.443Z,92.42
2017-02-17T03:07:42.901Z,92.18
2017-02-17T03:08:23.373Z,92.14
2017-02-17T03:09:05.565Z,92.18
2017-02-17T03:09:46.675Z,92.14
2017-02-17T03:10:27.188Z,91.95
2017-02-17T03:11:08.592Z,91.95
2017-02-17T03:11:49.126Z,92.04
2017-02-17T03:12:31.832Z,92.9
2017-02-17T03:13:14.848Z,92.99
2017-02-17T03:13:57.252Z,93.04
2017-02-17T03:14:44.337Z,92.99
2017-02-17T03:15:24.827Z,92.99
2017-02-17T03:16:08.846Z,92.9
2017-02-17T03:16:50.824Z,93.08
2017-02-17T03:17:32.830Z,92.9
2017-02-17T03:18:13.932Z,92.99
2017-02-17T03:18:55.825Z,92.23
2017-02-17T03:19:36.309Z,93.04
2017-02-17T03:20:17.426Z,93.08
2017-02-17T03:21:00.737Z,92.8
2017-02-17T03:21:41.191Z,92.99
2017-02-17T03:22:22.422Z,92.8
2017-02-17T03:23:05.315Z,92.8
2017-02-17T03:23:45.912Z,92.94
2017-02-17T03:24:27.203Z,92.52
2017-02-17T03:25:08.612Z,92.57
2017-02-17T03:25:51.323Z,92.61
2017-02-17T03:26:33.432Z,92.8
2017-02-17T03:27:16.529Z,92.61
2017-02-17T03:27:58.335Z,92.61
2017-02-17T03:28:40.323Z,92.61
2017-02-17T03:29:20.822Z,92.8
2017-02-17T03:30:02.824Z,92.61
2017-02-17T03:30:43.308Z,92.8
2017-02-17T03:31:23.802Z,92.52
2017-02-17T03:32:04.278Z,93.18
2017-02-17T03:32:44.806Z,93.18
2017-02-17T03:33:25.243Z,92.99
2017-02-17T03:34:06.316Z,93.37
2017-02-17T03:34:47.538Z,93.37
2017-02-17T03:35:27.956Z,93.08
2017-02-17T03:36:09.089Z,92.8
2017-02-17T03:36:50.511Z,93.08
2017-02-17T03:37:32.625Z,93.08
2017-02-17T03:38:14.123Z,92.71
2017-02-17T03:38:54.587Z,92.8
2017-02-17T03:39:36.011Z,92.9
2017-02-17T03:40:17.009Z,92.99
2017-02-17T03:40:59.320Z,92.99
2017-02-17T03:41:39.780Z,92.71
2017-02-17T03:42:20.291Z,92.71
2017-02-17T03:43:01.671Z,92.8
2017-02-17T03:43:43.859Z,92.99
2017-02-17T03:44:25.107Z,93.37
2017-02-17T03:45:06.180Z,93.46
2017-02-17T03:45:49.402Z,93.27
2017-02-17T03:46:30.593Z,93.41
2017-02-17T03:47:11.827Z,93.27
2017-02-17T03:47:53.829Z,93.37
2017-02-17T03:48:35.021Z,93.27
2017-02-17T03:49:18.108Z,93.37
2017-02-17T03:49:58.563Z,93.27
2017-02-17T03:50:39.011Z,93.18
2017-02-17T03:51:22.935Z,93.18
2017-02-17T03:52:03.395Z,93.18
2017-02-17T03:52:46.340Z,93.37
2017-02-17T03:53:26.829Z,93.46
2017-02-17T03:54:09.827Z,93.65
2017-02-17T03:54:50.316Z,93.46
2017-02-17T03:55:38.433Z,93.46
2017-02-17T03:56:19.407Z,93.37
2017-02-17T03:57:01.833Z,93.46
2017-02-17T03:57:43.836Z,93.46
2017-02-17T03:58:25.942Z,93.27
2017-02-17T04:00:45.302Z,94.13
2017-02-17T04:01:27.169Z,94.13
2017-02-17T04:02:09.179Z,93.84
2017-02-17T04:02:49.656Z,93.94
2017-02-17T04:03:30.672Z,94.04
2017-02-17T04:04:12.778Z,93.65
2017-02-17T04:05:02.654Z,93.84
2017-02-17T04:05:44.581Z,93.75
2017-02-17T04:06:25.570Z,94.04
2017-02-17T04:07:07.675Z,94.04
2017-02-17T04:07:54.683Z,94.13
2017-02-17T04:08:35.174Z,94.23
2017-02-17T04:09:18.185Z,94.04
2017-02-17T04:10:00.389Z,94.04
2017-02-17T04:10:42.402Z,93.94
2017-02-17T04:11:25.334Z,94.04
2017-02-17T04:12:06.342Z,94.13
2017-02-17T04:12:46.830Z,94.13
2017-02-17T04:13:32.170Z,93.94
2017-02-17T04:14:14.087Z,93.94
2017-02-17T04:14:55.385Z,93.84
2017-02-17T04:15:38.170Z,94.04
2017-02-17T04:16:20.202Z,94.42
2017-02-17T04:17:04.169Z,93.75
2017-02-17T04:17:45.489Z,94.23
2017-02-17T04:18:36.424Z,94.42
2017-02-17T04:19:20.778Z,94.32
2017-02-17T04:20:01.856Z,94.23
2017-02-17T04:20:45.574Z,94.42
2017-02-17T04:21:31.575Z,94.04
2017-02-17T04:22:16.569Z,94.42
2017-02-17T04:22:57.089Z,94.51
2017-02-17T04:23:43.178Z,94.7
2017-02-17T04:24:23.675Z,94.7
2017-02-17T04:25:04.848Z,94.42
2017-02-17T04:25:46.686Z,94.51
2017-02-17T04:26:31.762Z,94.7
2017-02-17T04:27:13.176Z,94.42
2017-02-17T04:27:57.163Z,94.23
2017-02-17T04:28:52.083Z,94.51
2017-02-17T04:29:35.312Z,94.51
2017-02-17T04:30:19.099Z,94.79
2017-02-17T04:31:04.109Z,94.79
2017-02-17T04:31:44.569Z,94.79
2017-02-17T04:32:30.767Z,94.7
2017-02-17T04:33:13.686Z,94.7
2017-02-17T04:33:57.683Z,94.98
2017-02-17T04:34:41.589Z,94.79
2017-02-17T04:35:24.577Z,94.89
2017-02-17T04:36:05.078Z,94.89
2017-02-17T04:36:49.089Z,95.07
2017-02-17T04:37:32.100Z,94.7
2017-02-17T04:38:13.086Z,94.7
2017-02-17T04:38:56.197Z,94.7
2017-02-17T04:39:40.079Z,94.79
2017-02-17T04:40:20.627Z,94.89
2017-02-17T04:42:37.454Z,94.6
2017-02-17T04:43:23.672Z,94.6
2017-02-17T04:44:05.762Z,94.6
2017-02-17T04:44:47.746Z,94.6
2017-02-17T04:45:28.202Z,94.89
2017-02-17T04:46:08.645Z,94.7
2017-02-17T04:46:49.935Z,94.89
2017-02-17T04:47:31.778Z,95.26
2017-02-17T04:48:15.665Z,94.42
2017-02-17T04:48:56.167Z,94.42
2017-02-17T04:49:37.221Z,95.17
2017-02-17T04:50:18.344Z,95.07
2017-02-17T04:51:04.286Z,94.98
2017-02-17T04:51:46.331Z,95.26
2017-02-17T04:52:29.152Z,95.36
2017-02-17T04:53:11.248Z,95.36
2017-02-17T04:53:55.551Z,95.36
2017-02-17T04:54:37.684Z,95.74
2017-02-17T04:55:18.152Z,95.45
2017-02-17T04:55:59.240Z,95.45
2017-02-17T04:56:39.729Z,95.17
2017-02-17T04:57:25.664Z,95.36
2017-02-17T04:58:08.673Z,95.26
2017-02-17T04:58:50.769Z,95.07
2017-02-17T04:59:31.258Z,95.07
2017-02-17T05:00:15.177Z,95.26
2017-02-17T05:00:58.168Z,95.07
2017-02-17T05:01:40.429Z,95.17
2017-02-17T05:02:21.746Z,95.26
2017-02-17T05:03:02.213Z,95.26
2017-02-17T05:03:44.170Z,95.26
2017-02-17T05:04:26.183Z,94.89
2017-02-17T05:05:09.168Z,95.07
2017-02-17T05:05:49.684Z,95.07
2017-02-17T05:06:30.129Z,95.07
2017-02-17T05:07:11.353Z,95.36
2017-02-17T05:07:52.749Z,95.36
2017-02-17T05:08:33.853Z,95.36
2017-02-17T05:09:15.026Z,95.55
2017-02-17T05:10:01.173Z,95.36
2017-02-17T05:10:41.685Z,95.55
2017-02-17T05:11:25.859Z,95.45
2017-02-17T05:12:07.835Z,95.36
2017-02-17T05:12:48.840Z,95.45
2017-02-17T05:13:32.667Z,95.36
2017-02-17T05:14:13.147Z,95.45
2017-02-17T05:14:54.523Z,95.17
2017-02-17T05:15:36.935Z,95.45
2017-02-17T05:16:17.429Z,95.45
2017-02-17T05:17:00.756Z,94.89
2017-02-17T05:17:41.223Z,95.07
2017-02-17T05:18:24.266Z,94.89
2017-02-17T05:19:04.773Z,94.89
2017-02-17T05:19:46.511Z,94.89
2017-02-17T05:20:27.579Z,95.55
2017-02-17T05:21:08.086Z,95.17
2017-02-17T05:21:48.651Z,95.26
2017-02-17T05:22:30.778Z,95.41
2017-02-17T05:23:12.953Z,95.41
2017-02-17T05:23:55.867Z,95.36
2017-02-17T05:24:39.789Z,95.12
2017-02-17T05:25:26.674Z,95.03
2017-02-17T05:26:07.979Z,94.84
2017-02-17T05:26:50.171Z,95.12
2017-02-17T05:27:33.510Z,95.03
2017-02-17T05:28:17.664Z,95.12
2017-02-17T05:28:59.088Z,95.26
2017-02-17T05:29:40.455Z,95.22
2017-02-17T05:30:23.493Z,94.93
2017-02-17T05:31:04.647Z,95.88
2017-02-17T05:31:46.069Z,95.98
2017-02-17T05:32:34.720Z,96.07
2017-02-17T05:33:16.708Z,95.79
2017-02-17T05:33:59.060Z,95.79
2017-02-17T05:34:40.530Z,95.88
2017-02-17T05:35:27.255Z,95.88
2017-02-17T05:36:08.793Z,95.5
2017-02-17T05:36:51.034Z,95.5
2017-02-17T05:37:31.524Z,95.6
2017-02-17T05:38:18.771Z,95.79
2017-02-17T05:38:59.323Z,95.79
2017-02-17T05:39:42.532Z,95.79
2017-02-17T05:40:23.670Z,95.98
2017-02-17T05:41:05.041Z,96.26
2017-02-17T05:41:49.942Z,96.26
2017-02-17T05:42:30.438Z,95.88
2017-02-17T05:43:12.550Z,96.26
2017-02-17T05:43:53.985Z,96.26
2017-02-17T05:44:35.972Z,96.17
2017-02-17T05:45:16.470Z,96.17
2017-02-17T05:45:57.060Z,96.36
2017-02-17T05:46:39.383Z,96.17
2017-02-17T05:47:19.937Z,96.17
2017-02-17T05:48:00.422Z,96.17
2017-02-17T05:48:41.760Z,96.07
2017-02-17T05:49:24.256Z,96.55
2017-02-17T05:50:04.724Z,96.17
2017-02-17T05:50:47.672Z,96.26
2017-02-17T05:51:28.146Z,96.07
2017-02-17T05:52:09.528Z,96.26
2017-02-17T05:52:53.345Z,96.17
2017-02-17T05:53:38.173Z,95.98
2017-02-17T05:54:21.172Z,96.07
2017-02-17T05:55:02.192Z,96.07
2017-02-17T05:55:44.500Z,96.26
2017-02-17T05:56:26.457Z,95.98
2017-02-17T05:58:41.522Z,96.26
2017-02-17T05:59:24.844Z,96.07
2017-02-17T06:00:05.361Z,96.07
2017-02-17T06:00:45.840Z,96.07
2017-02-17T06:02:35.159Z,96.17
2017-02-17T06:03:19.027Z,96.07
2017-02-17T06:04:02.948Z,96.26
2017-02-17T06:04:47.068Z,96.07
2017-02-17T06:05:28.947Z,96.17
2017-02-17T06:06:10.241Z,96.17
2017-02-17T06:06:51.320Z,96.26
2017-02-17T06:07:34.439Z,96.45
2017-02-17T06:08:16.442Z,96.45
2017-02-17T06:08:59.493Z,96.55
2017-02-17T06:09:40.786Z,96.17
2017-02-17T06:10:23.467Z,96.36
2017-02-17T06:11:03.917Z,96.36
2017-02-17T06:11:47.938Z,96.26
2017-02-17T06:12:29.114Z,96.36
2017-02-17T06:13:11.516Z,96.36
2017-02-17T06:13:51.998Z,96.45
2017-02-17T06:14:34.440Z,96.45
2017-02-17T06:15:18.440Z,96.83
2017-02-17T06:16:00.528Z,96.83
2017-02-17T06:16:46.543Z,96.73
2017-02-17T06:17:29.485Z,96.92
2017-02-17T06:18:12.501Z,97.11
2017-02-17T06:18:54.742Z,97.11
2017-02-17T06:19:35.232Z,96.92
2017-02-17T06:20:18.425Z,97.02
2017-02-17T06:20:59.838Z,97.11
2017-02-17T06:21:42.028Z,97.11
2017-02-17T06:22:23.441Z,97.11
2017-02-17T06:23:05.561Z,97.11
2017-02-17T06:23:47.022Z,96.83
2017-02-17T06:24:28.204Z,96.92
2017-02-17T06:25:11.128Z,97.02
2017-02-17T06:25:52.524Z,96.92
2017-02-17T06:26:36.564Z,97.02
2017-02-17T06:27:19.431Z,97.11
2017-02-17T06:27:59.917Z,96.64
2017-02-17T06:28:41.374Z,96.64
2017-02-17T06:29:28.435Z,97.02
2017-02-17T06:30:09.623Z,96.92
2017-02-17T06:30:53.517Z,97.11
2017-02-17T06:31:35.469Z,97.02
2017-02-17T06:32:15.879Z,96.73
2017-02-17T06:32:58.158Z,96.73
2017-02-17T06:33:43.021Z,96.92
2017-02-17T06:34:24.972Z,97.68
2017-02-17T06:35:06.288Z,97.11
2017-02-17T06:35:51.437Z,97.68
2017-02-17T06:36:33.525Z,97.3
2017-02-17T06:37:16.725Z,97.21
2017-02-17T06:37:57.802Z,97.4
2017-02-17T06:38:41.115Z,97.4
2017-02-17T06:39:28.434Z,97.3
2017-02-17T06:40:10.449Z,97.11
2017-02-17T06:40:53.654Z,97.11
2017-02-17T06:41:37.441Z,97.4
2017-02-17T06:42:17.929Z,97.11
2017-02-17T06:44:35.624Z,97.49
2017-02-17T06:45:23.492Z,97.49
2017-02-17T06:46:09.109Z,97.59
2017-02-17T06:46:54.801Z,97.21
2017-02-17T06:47:46.528Z,97.3
2017-02-17T06:48:32.108Z,97.59
2017-02-17T06:49:15.096Z,97.59
2017-02-17T06:49:55.698Z,97.59
2017-02-17T06:50:36.164Z,97.3
2017-02-17T06:51:16.635Z,97.4
2017-02-17T06:51:59.687Z,97.3
2017-02-17T06:52:41.952Z,97.3
2017-02-17T06:53:22.436Z,97.4
2017-02-17T06:54:02.950Z,97.4
2017-02-17T06:54:43.432Z,97.21
2017-02-17T06:55:23.970Z,97.21
2017-02-17T06:56:04.430Z,97.21
2017-02-17T06:56:44.927Z,97.21
2017-02-17T06:57:25.461Z,97.4
2017-02-17T06:58:06.592Z,97.21
2017-02-17T06:58:47.082Z,97.21
2017-02-17T06:59:27.559Z,97.21
2017-02-17T07:00:08.083Z,97.21
2017-02-17T07:00:48.585Z,97.21
2017-02-17T07:01:29.078Z,97.21
2017-02-17T07:02:09.608Z,97.49
2017-02-17T07:02:50.181Z,97.3
2017-02-17T07:03:30.662Z,97.3
2017-02-17T07:04:11.867Z,97.02
2017-02-17T07:04:52.432Z,97.02
2017-02-17T07:05:32.827Z,97.02
2017-02-17T07:06:14.125Z,97.4
2017-02-17T07:06:56.100Z,97.07
2017-02-17T07:07:37.421Z,97.07
2017-02-17T07:08:17.880Z,97.11
2017-02-17T07:09:00.606Z,97.02
2017-02-17T07:09:43.170Z,97.83
2017-02-17T07:10:23.679Z,97.3
2017-02-17T07:11:05.007Z,97.35
2017-02-17T07:11:45.510Z,97.78
2017-02-17T07:12:26.195Z,97.87
2017-02-17T07:13:06.664Z,97.87
2017-02-17T07:13:47.502Z,98.06
2017-02-17T07:14:28.823Z,97.49
2017-02-17T07:15:09.434Z,97.64
2017-02-17T07:15:49.985Z,97.87
2017-02-17T07:16:31.464Z,97.97
2017-02-17T07:17:11.972Z,98.11
2017-02-17T07:17:54.667Z,97.59
2017-02-17T07:18:35.318Z,97.54
2017-02-17T07:19:15.770Z,97.87
2017-02-17T07:19:56.286Z,97.83
2017-02-17T07:20:36.797Z,98.11
2017-02-17T07:21:17.282Z,97.54
2017-02-17T07:21:58.482Z,98.21
2017-02-17T07:22:38.974Z,97.64
2017-02-17T07:23:19.454Z,97.64
2017-02-17T07:24:00.034Z,97.83
2017-02-17T07:24:40.535Z,98.11
2017-02-17T07:25:21.053Z,98.02
2017-02-17T07:26:01.566Z,97.92
2017-02-17T07:26:42.063Z,97.54
2017-02-17T07:27:22.557Z,98.11
2017-02-17T07:28:03.070Z,97.64
2017-02-17T07:28:43.542Z,97.83
2017-02-17T07:29:24.063Z,97.64
2017-02-17T07:30:04.601Z,97.64
2017-02-17T07:30:45.114Z,97.73
2017-02-17T07:31:25.596Z,97.83
2017-02-17T07:32:06.154Z,97.64
2017-02-17T07:32:46.650Z,97.64
2017-02-17T07:33:27.131Z,97.83
2017-02-17T07:34:07.634Z,97.83
2017-02-17T07:34:48.178Z,97.83
2017-02-17T07:35:28.665Z,98.11
2017-02-17T07:36:09.523Z,97.83
2017-02-17T07:36:50.062Z,97.73
2017-02-17T07:37:30.526Z,97.83
2017-02-17T07:38:10.989Z,97.83
2017-02-17T07:38:51.571Z,97.83
2017-02-17T07:39:32.180Z,97.73
2017-02-17T07:40:12.695Z,97.83
2017-02-17T07:40:53.195Z,97.83
2017-02-17T07:41:33.788Z,97.83
2017-02-17T07:42:14.347Z,98.02
2017-02-17T07:42:54.888Z,97.92
2017-02-17T07:43:35.380Z,97.83
2017-02-17T07:44:15.938Z,97.83
2017-02-17T07:44:57.004Z,97.92
2017-02-17T07:45:37.372Z,98.02
2017-02-17T07:46:17.941Z,98.11
2017-02-17T07:46:58.443Z,98.02
2017-02-17T07:47:38.966Z,98.02
2017-02-17T07:48:19.479Z,98.02
2017-02-17T07:49:00.330Z,97.92
2017-02-17T07:49:40.810Z,98.02
2017-02-17T07:50:21.587Z,98.02
2017-02-17T07:51:02.123Z,98.11
2017-02-17T07:51:42.753Z,98.11
2017-02-17T07:52:23.235Z,98.11
2017-02-17T07:53:03.863Z,97.64
2017-02-17T07:53:44.384Z,98.39
2017-02-17T07:54:24.858Z,98.3
2017-02-17T07:55:05.347Z,97.73
2017-02-17T07:55:45.806Z,97.73
2017-02-17T07:56:26.283Z,98.21
2017-02-17T07:57:06.795Z,98.11
2017-02-17T07:57:48.079Z,98.3
2017-02-17T07:58:28.886Z,97.64
2017-02-17T07:59:09.536Z,98.11
2017-02-17T07:59:51.909Z,97.92
2017-02-17T08:00:32.450Z,98.11
2017-02-17T08:01:13.820Z,97.73
2017-02-17T08:01:54.305Z,97.73
2017-02-17T08:02:35.024Z,98.3
2017-02-17T08:03:15.565Z,98.21
2017-02-17T08:03:56.079Z,97.73
2017-02-17T08:04:36.573Z,98.3
2017-02-17T08:05:17.592Z,98.21
2017-02-17T08:05:58.087Z,98.3
2017-02-17T08:06:38.567Z,97.83
2017-02-17T08:07:19.900Z,97.73
2017-02-17T08:08:00.377Z,98.39
2017-02-17T08:08:42.268Z,98.39
2017-02-17T08:09:22.797Z,98.21
2017-02-17T08:10:03.295Z,97.73
2017-02-17T08:10:43.880Z,98.21
2017-02-17T08:11:24.351Z,98.21
2017-02-17T08:12:04.886Z,98.39
2017-02-17T08:12:45.389Z,98.39
2017-02-17T08:13:27.671Z,98.39
2017-02-17T08:14:08.358Z,98.21
2017-02-17T08:14:48.895Z,98.39
2017-02-17T08:15:30.405Z,98.39
2017-02-17T08:16:11.481Z,98.39
2017-02-17T08:16:52.031Z,98.39
2017-02-17T08:17:32.599Z,98.21
2017-02-17T08:18:13.135Z,98.39
2017-02-17T08:18:53.664Z,98.3
2017-02-17T08:19:35.173Z,98.21
2017-02-17T08:20:15.775Z,98.21
2017-02-17T08:20:57.795Z,98.21
2017-02-17T08:21:38.325Z,98.21
2017-02-17T08:22:18.892Z,98.39
2017-02-17T08:22:59.404Z,98.39
2017-02-17T08:23:39.929Z,98.21
2017-02-17T08:24:20.414Z,98.11
2017-02-17T08:25:00.924Z,97.73
2017-02-17T08:25:41.403Z,97.73
2017-02-17T08:26:21.910Z,97.73
2017-02-17T08:27:02.925Z,97.83
2017-02-17T08:27:43.289Z,97.73
2017-02-17T08:28:23.762Z,98.02
2017-02-17T08:29:05.490Z,97.73
2017-02-17T08:29:45.592Z,98.02
2017-02-17T08:30:26.087Z,98.11
2017-02-17T08:31:06.580Z,98.02
2017-02-17T08:31:48.091Z,98.21
2017-02-17T08:32:28.583Z,98.11
2017-02-17T08:33:09.073Z,97.83
2017-02-17T08:33:49.595Z,98.16
2017-02-17T08:34:30.095Z,98.02
2017-02-17T08:35:10.575Z,98.11
2017-02-17T08:35:51.057Z,98.02
2017-02-17T08:36:31.588Z,97.83
2017-02-17T08:37:12.080Z,97.88
2017-02-17T08:37:52.602Z,98.07
2017-02-17T08:38:33.123Z,97.88
2017-02-17T08:39:13.680Z,97.88
2017-02-17T08:39:54.192Z,97.88
2017-02-17T08:40:34.792Z,98.07
2017-02-17T08:41:15.189Z,98.07
2017-02-17T08:41:56.336Z,97.88
2017-02-17T08:42:36.823Z,98.07
2017-02-17T08:43:17.349Z,98.07
2017-02-17T08:43:57.818Z,98.16
2017-02-17T08:44:38.314Z,98.16
2017-02-17T08:45:18.836Z,97.88
2017-02-17T08:45:59.349Z,98.16
2017-02-17T08:46:39.871Z,97.88
2017-02-17T08:47:20.873Z,97.88
2017-02-17T08:48:01.354Z,97.88
2017-02-17T08:48:42.798Z,97.88
2017-02-17T08:49:23.327Z,97.97
2017-02-17T08:50:03.894Z,97.88
2017-02-17T08:50:44.343Z,97.83
2017-02-17T08:52:46.320Z,97.83
2017-02-17T08:53:36.779Z,97.92
2017-02-17T08:54:25.752Z,97.83
2017-02-17T08:56:30.511Z,97.73
2017-02-17T08:57:19.611Z,98.21
2017-02-17T08:58:08.046Z,97.83
2017-02-17T08:58:57.178Z,97.83
2017-02-17T08:59:45.792Z,97.92
2017-02-17T09:00:34.652Z,97.83
2017-02-17T09:01:23.391Z,98.02
2017-02-17T09:03:51.577Z,97.97
2017-02-17T09:04:39.701Z,98.25
2017-02-17T09:05:27.987Z,97.88
2017-02-17T09:06:16.796Z,97.4
2017-02-17T09:07:08.347Z,97.59
2017-02-17T09:07:57.239Z,97.4
2017-02-17T09:08:47.221Z,97.78
2017-02-17T09:10:49.180Z,97.12
2017-02-17T09:11:38.683Z,97.12